This is the latest recevied weather packets stored in our database for station/object KD8LPB. If no packets are shown the sender has not sent any weather packets the latest 10 day(s).
| Time | Temp. | Humidity | Pressure | Rain* | Wind** | Luminosity | Snow |
|---|---|---|---|---|---|---|---|
| 1778175045 | 5.56° C | 72% | 1009.6 hPa | 0 mm | - | - | - |
| 1778174139 | 6.11° C | 75% | 1009.8 hPa | 0 mm | - | - | - |
| 1778173240 | 5° C | 75% | 1009.8 hPa | 0 mm | - | - | - |
| 1778170544 | 5° C | 76% | 1010.3 hPa | 0 mm | - | - | - |
| 1778160643 | 3.89° C | 78% | 1010.3 hPa | 0 mm | - | - | - |
| 1778159734 | 3.33° C | 79% | 1010.3 hPa | 0 mm | - | - | - |
| 1778152548 | 0.56° C | 90% | 1009.8 hPa | 0 mm | - | - | - |
| 1778148938 | 0° C | 94% | 1009.6 hPa | 0 mm | - | - | - |
| 1778148038 | 0° C | 95% | 1009.7 hPa | 0 mm | - | - | - |
| 1778144431 | 0° C | 96% | 1010.1 hPa | 0 mm | - | - | - |
| 1778138136 | -0.56° C | 98% | 1010.9 hPa | 0 mm | - | - | - |
| 1778136345 | -0.56° C | 98% | 1011.1 hPa | 0 mm | - | - | - |
| 1778135438 | -1.11° C | 98% | 1011.2 hPa | 0 mm | - | - | - |
| 1778126442 | 1.11° C | 90% | 1012.1 hPa | 0 mm | - | - | - |
| 1778117444 | 1.67° C | 83% | 1012.2 hPa | 0 mm | - | - | - |
| 1778115635 | 1.67° C | 81% | 1011.9 hPa | 0 mm | - | - | - |
| 1778113839 | 2.22° C | 81% | 1011.9 hPa | 0 mm | - | - | - |
| 1778111141 | 2.22° C | 81% | 1011.8 hPa | 0 mm | - | - | - |
| 1778109344 | 2.78° C | 83% | 1011.9 hPa | 0 mm | - | - | - |
| 1778108438 | 3.33° C | 82% | 1011.7 hPa | 0 mm | - | - | - |
| 1778103941 | 3.33° C | 83% | 1011.7 hPa | 0 mm | - | - | - |
| 1778100338 | 3.89° C | 79% | 1011.6 hPa | 0 mm | - | - | - |
| 1778097644 | 3.33° C | 81% | 1011.6 hPa | 0 mm | - | - | - |
| 1778095840 | 3.89° C | 81% | 1011.4 hPa | 0 mm | - | - | - |
| 1778089538 | 4.44° C | 79% | 1011.5 hPa | 0 mm | - | - | - |
* Rain latest hour (hover to see other rain measurements)
** Current wind speed in m/s (hover to see current wind gust speed)